Greenwood, CFB Greenwood (CYZX)

NameCFB Greenwood
CityGreenwood
CountryCanada
ICAOCYZX
IATAYZX
Altitude28 m
CoordinatesGoogle Map
Live Air TrafficLiveATC.net
METARCYZX 201500Z 28013G19KT 15SM FEW070 00/M17 A3039 RMK AC1 SLP293
2019-03-20 15:00:00 Wind: West (280°) 6.69 m/s - Visibility: 24140.1 m - Temperature: 0 °C - Dew point: -17 °C - Humidity: 26.8% - Pressure: 1029.12 hPa
Statistics

The table below shows the detailed information of all flights to/from Greenwood, CFB Greenwood (CYZX).